Share

Arminto, WY (82630)

RAWS FALES ROCK WY US (MRSNW4) Elev 6379 ft | 42.86 °N, 107.27 °W | Change Station
Active Advisory: Special Statement

Current weather conditions updated 52 minutes ago

Overcast
Overcast
27 °F
Feels Like 27 °F
N
1
Wind Variable Wind from NW
Gusts 8.0 mph
Sunrise 6:24 AM
Sunset 7:54 PM
Moon Waning Gibbous

Today is forecast to be Much Warmer than yesterday.

Pressure 30.05 in
Visibility 5.0 miles
Clouds Overcast 300 ft
Windchill 27 °F
Dew Point 27 °F
Humidity 98%
Rainfall 0.00 in
Snow Depth Not available.
UV 0 out of 16
Pollen 8.00 out of 12
Air Quality Not available.
Flu Activity Sporadic
METAR KCPR 171053Z 00000KT 5SM BR OVC003 M01/M02 A3004 RMK AO2 SLP176 T10061017

More Conditions Fewer Conditions

Pressure 30.05 in
Visibility 5.0 miles
Clouds Overcast 300 ft
Windchill 27 °F
Dew Point 27 °F
Humidity 98%
Rainfall 0.00 in
Snow Depth Not available.
UV 0 out of 16
Pollen 8.00 out of 12
Air Quality Not available.
Flu Activity Sporadic
METAR KCPR 171053Z 00000KT 5SM BR OVC003 M01/M02 A3004 RMK AO2 SLP176 T10061017

More Conditions Fewer Conditions

10-Day Forecast

Almanac

Astronomy

Apr. 17, 2014 Rise Set
Actual Time 6:24 AM MDT 7:54 PM MDT
Civil Twilight 5:54 AM MDT 8:24 PM MDT
Nautical Twilight 5:18 AM MDT 9:00 PM MDT
Astronomical Twilight 4:40 AM MDT 9:39 PM MDT
Moon 10:46 PM MDT 7:55 AM MDT
Length of Visible Light 14h 30m
Length of Day
13h 30m
Tomorrow will be 2m 47s longer.
Waning Gibbous, 95% of the Moon is Illuminated
Today
Waning Gibbous
Apr 22
Last Quarter
Apr 29
New
May 6
First Quarter
May 14
Full

Today's Extremes

State Highs State Lows

Community

  • Sunset over the Bay
    Sunset over the Bay
  • symphony in blue....
    symphony in blue....
  • Dawn Surprise
    Dawn Surprise
  • Yucca delight
    Yucca delight
  • Sunset inside of the Ocean
    Sunset inside of the Ocean

WunderPhotos

Upload Photos

1,701,903 photos uploaded!

Nearby

Snow Depth

Station Depth Elevation
Casper Mountain 55 in 7850 ft
Reno Hill 62 in 8500 ft
Townsend Creek 28 in 8700 ft
Laprele Creek 30 in 8375 ft
Big Sandy Opening 47 in 9080 ft

Coastal Water Temperatures

Place Temperature
No Stations Reporting

Earthquake Activity

City Distance Mag. Time & Date
No recent earthquake activity has been reported nearby.
Minimum magnitude displayed is 2.5.

Nearby Weather Stations

Station Location Temp. Windchill Dew Point Humidity Wind Precip. Elev Updated Type
RAWS FALES ROCK WY, Hiland, WY 27 °F 27 °F 27 °F 98% NW  at  1 mph 0.00 in / hr 6379 ft 4:10 AM MDT MADIS

Show More Stations Show Fewer Stations

What do you think?

We're not finished. Please let us know what you like, what you don't like, and what you are still missing.